sensor_id;sensor_type;location;lat;lon;timestamp;P1;durP1;ratioP1;P2;durP2;ratioP2
48667;SDS011;34453;52.198;5.004;2022-10-17T00:00:46;4.20;;;3.80;;
48667;SDS011;34453;52.198;5.004;2022-10-17T00:03:12;4.10;;;3.70;;
48667;SDS011;34453;52.198;5.004;2022-10-17T00:05:41;4.43;;;4.03;;
48667;SDS011;34453;52.198;5.004;2022-10-17T00:08:07;11.23;;;4.10;;
48667;SDS011;34453;52.198;5.004;2022-10-17T00:10:33;4.82;;;4.43;;
48667;SDS011;34453;52.198;5.004;2022-10-17T00:12:58;7.90;;;4.40;;
48667;SDS011;34453;52.198;5.004;2022-10-17T00:15:23;5.78;;;4.53;;
48667;SDS011;34453;52.198;5.004;2022-10-17T00:17:48;7.47;;;4.22;;
48667;SDS011;34453;52.198;5.004;2022-10-17T00:20:14;6.00;;;5.13;;
48667;SDS011;34453;52.198;5.004;2022-10-17T00:22:40;5.07;;;3.67;;
48667;SDS011;34453;52.198;5.004;2022-10-17T00:25:05;6.55;;;4.18;;
48667;SDS011;34453;52.198;5.004;2022-10-17T00:27:33;8.57;;;3.78;;
48667;SDS011;34453;52.198;5.004;2022-10-17T00:29:59;6.00;;;3.35;;
48667;SDS011;34453;52.198;5.004;2022-10-17T00:32:24;4.72;;;3.60;;
48667;SDS011;34453;52.198;5.004;2022-10-17T00:34:49;7.20;;;5.22;;
48667;SDS011;34453;52.198;5.004;2022-10-17T00:37:15;6.85;;;4.85;;
48667;SDS011;34453;52.198;5.004;2022-10-17T00:39:40;8.85;;;4.43;;
48667;SDS011;34453;52.198;5.004;2022-10-17T00:42:05;4.75;;;4.38;;
48667;SDS011;34453;52.198;5.004;2022-10-17T00:46:56;4.25;;;3.95;;
48667;SDS011;34453;52.198;5.004;2022-10-17T00:49:22;5.47;;;4.57;;
48667;SDS011;34453;52.198;5.004;2022-10-17T00:51:50;8.50;;;4.22;;
48667;SDS011;34453;52.198;5.004;2022-10-17T00:54:18;10.50;;;4.70;;
48667;SDS011;34453;52.198;5.004;2022-10-17T00:56:45;5.72;;;5.07;;
48667;SDS011;34453;52.198;5.004;2022-10-17T00:59:11;6.10;;;5.53;;
48667;SDS011;34453;52.198;5.004;2022-10-17T01:01:38;7.03;;;5.88;;
48667;SDS011;34453;52.198;5.004;2022-10-17T01:04:03;5.78;;;5.40;;
48667;SDS011;34453;52.198;5.004;2022-10-17T01:06:29;9.98;;;6.45;;
48667;SDS011;34453;52.198;5.004;2022-10-17T01:08:54;6.80;;;6.20;;
48667;SDS011;34453;52.198;5.004;2022-10-17T01:17:15;6.55;;;5.80;;
48667;SDS011;34453;52.198;5.004;2022-10-17T01:22:17;6.82;;;6.22;;
48667;SDS011;34453;52.198;5.004;2022-10-17T01:27:17;6.85;;;6.18;;
48667;SDS011;34453;52.198;5.004;2022-10-17T01:29:56;8.75;;;6.70;;
48667;SDS011;34453;52.198;5.004;2022-10-17T01:32:33;10.88;;;6.68;;
48667;SDS011;34453;52.198;5.004;2022-10-17T01:37:30;7.75;;;7.03;;
48667;SDS011;34453;52.198;5.004;2022-10-17T01:40:06;6.82;;;6.15;;
48667;SDS011;34453;52.198;5.004;2022-10-17T01:42:36;7.18;;;6.72;;
48667;SDS011;34453;52.198;5.004;2022-10-17T01:47:47;8.85;;;7.18;;
48667;SDS011;34453;52.198;5.004;2022-10-17T01:50:16;7.50;;;6.80;;
48667;SDS011;34453;52.198;5.004;2022-10-17T01:52:50;8.88;;;7.32;;
48667;SDS011;34453;52.198;5.004;2022-10-17T01:55:24;11.35;;;7.97;;
48667;SDS011;34453;52.198;5.004;2022-10-17T01:57:52;10.63;;;8.45;;
48667;SDS011;34453;52.198;5.004;2022-10-17T02:00:22;8.20;;;7.45;;
48667;SDS011;34453;52.198;5.004;2022-10-17T02:02:48;7.93;;;7.25;;
48667;SDS011;34453;52.198;5.004;2022-10-17T02:05:16;7.43;;;6.90;;
48667;SDS011;34453;52.198;5.004;2022-10-17T02:07:42;8.00;;;7.30;;
48667;SDS011;34453;52.198;5.004;2022-10-17T02:10:09;10.45;;;7.35;;
48667;SDS011;34453;52.198;5.004;2022-10-17T02:15:30;15.70;;;8.10;;
48667;SDS011;34453;52.198;5.004;2022-10-17T02:20:34;9.10;;;8.27;;
48667;SDS011;34453;52.198;5.004;2022-10-17T02:27:59;8.80;;;8.00;;
48667;SDS011;34453;52.198;5.004;2022-10-17T02:30:35;8.10;;;7.32;;
48667;SDS011;34453;52.198;5.004;2022-10-17T02:33:06;9.65;;;8.55;;
48667;SDS011;34453;52.198;5.004;2022-10-17T02:35:35;8.90;;;8.10;;
48667;SDS011;34453;52.198;5.004;2022-10-17T02:38:02;8.98;;;8.20;;
48667;SDS011;34453;52.198;5.004;2022-10-17T02:40:28;9.55;;;8.60;;
48667;SDS011;34453;52.198;5.004;2022-10-17T02:42:53;8.52;;;7.85;;
48667;SDS011;34453;52.198;5.004;2022-10-17T02:45:19;11.27;;;9.45;;
48667;SDS011;34453;52.198;5.004;2022-10-17T02:50:12;9.20;;;8.40;;
48667;SDS011;34453;52.198;5.004;2022-10-17T02:55:34;8.98;;;8.27;;
48667;SDS011;34453;52.198;5.004;2022-10-17T02:58:01;9.77;;;8.55;;
48667;SDS011;34453;52.198;5.004;2022-10-17T03:00:28;9.43;;;8.68;;
48667;SDS011;34453;52.198;5.004;2022-10-17T03:02:53;12.77;;;8.23;;
48667;SDS011;34453;52.198;5.004;2022-10-17T03:05:20;11.88;;;8.63;;
48667;SDS011;34453;52.198;5.004;2022-10-17T03:07:46;8.90;;;8.10;;
48667;SDS011;34453;52.198;5.004;2022-10-17T03:10:11;8.10;;;7.45;;
48667;SDS011;34453;52.198;5.004;2022-10-17T03:12:36;8.30;;;7.60;;
48667;SDS011;34453;52.198;5.004;2022-10-17T03:15:02;12.77;;;7.60;;
48667;SDS011;34453;52.198;5.004;2022-10-17T03:17:27;9.20;;;8.30;;
48667;SDS011;34453;52.198;5.004;2022-10-17T03:19:53;8.57;;;7.55;;
48667;SDS011;34453;52.198;5.004;2022-10-17T03:22:18;10.35;;;7.45;;
48667;SDS011;34453;52.198;5.004;2022-10-17T03:24:43;8.70;;;7.88;;
48667;SDS011;34453;52.198;5.004;2022-10-17T03:27:08;11.75;;;8.02;;
48667;SDS011;34453;52.198;5.004;2022-10-17T03:29:34;8.75;;;8.02;;
48667;SDS011;34453;52.198;5.004;2022-10-17T03:31:59;14.88;;;7.72;;
48667;SDS011;34453;52.198;5.004;2022-10-17T03:34:24;10.13;;;7.60;;
48667;SDS011;34453;52.198;5.004;2022-10-17T03:36:50;9.50;;;7.85;;
48667;SDS011;34453;52.198;5.004;2022-10-17T03:39:15;9.10;;;8.30;;
48667;SDS011;34453;52.198;5.004;2022-10-17T03:41:40;10.32;;;7.60;;
48667;SDS011;34453;52.198;5.004;2022-10-17T03:44:05;10.23;;;8.20;;
48667;SDS011;34453;52.198;5.004;2022-10-17T03:46:31;7.93;;;7.22;;
48667;SDS011;34453;52.198;5.004;2022-10-17T03:48:57;7.32;;;6.63;;
48667;SDS011;34453;52.198;5.004;2022-10-17T03:51:22;8.55;;;7.82;;
48667;SDS011;34453;52.198;5.004;2022-10-17T03:53:47;8.15;;;7.45;;
48667;SDS011;34453;52.198;5.004;2022-10-17T03:56:14;9.77;;;7.32;;
48667;SDS011;34453;52.198;5.004;2022-10-17T03:58:40;8.00;;;6.75;;
48667;SDS011;34453;52.198;5.004;2022-10-17T04:01:06;8.55;;;7.85;;
48667;SDS011;34453;52.198;5.004;2022-10-17T04:03:31;9.35;;;7.07;;
48667;SDS011;34453;52.198;5.004;2022-10-17T04:05:58;7.22;;;6.60;;
48667;SDS011;34453;52.198;5.004;2022-10-17T04:08:24;7.82;;;7.03;;
48667;SDS011;34453;52.198;5.004;2022-10-17T04:10:49;7.32;;;6.65;;
48667;SDS011;34453;52.198;5.004;2022-10-17T04:13:14;6.68;;;6.18;;
48667;SDS011;34453;52.198;5.004;2022-10-17T04:15:40;7.10;;;6.70;;
48667;SDS011;34453;52.198;5.004;2022-10-17T04:18:05;8.02;;;7.20;;
48667;SDS011;34453;52.198;5.004;2022-10-17T04:20:30;8.02;;;6.55;;
48667;SDS011;34453;52.198;5.004;2022-10-17T04:22:55;7.07;;;6.47;;
48667;SDS011;34453;52.198;5.004;2022-10-17T04:25:20;10.20;;;6.72;;
48667;SDS011;34453;52.198;5.004;2022-10-17T04:27:46;7.03;;;6.35;;
48667;SDS011;34453;52.198;5.004;2022-10-17T04:30:13;8.23;;;6.68;;
48667;SDS011;34453;52.198;5.004;2022-10-17T04:32:38;7.13;;;6.53;;
48667;SDS011;34453;52.198;5.004;2022-10-17T04:35:03;7.82;;;7.07;;
48667;SDS011;34453;52.198;5.004;2022-10-17T04:37:29;9.00;;;6.00;;
48667;SDS011;34453;52.198;5.004;2022-10-17T04:39:54;8.77;;;6.32;;
48667;SDS011;34453;52.198;5.004;2022-10-17T04:42:19;7.10;;;6.35;;
48667;SDS011;34453;52.198;5.004;2022-10-17T04:44:45;10.88;;;6.70;;
48667;SDS011;34453;52.198;5.004;2022-10-17T04:47:10;8.50;;;5.97;;
48667;SDS011;34453;52.198;5.004;2022-10-17T04:49:35;6.97;;;6.28;;
48667;SDS011;34453;52.198;5.004;2022-10-17T04:52:00;7.13;;;5.95;;
48667;SDS011;34453;52.198;5.004;2022-10-17T04:54:26;6.78;;;6.15;;
48667;SDS011;34453;52.198;5.004;2022-10-17T04:56:51;7.30;;;6.15;;
48667;SDS011;34453;52.198;5.004;2022-10-17T04:59:16;6.50;;;5.90;;
48667;SDS011;34453;52.198;5.004;2022-10-17T05:01:41;9.55;;;7.10;;
48667;SDS011;34453;52.198;5.004;2022-10-17T05:04:07;7.07;;;6.43;;
48667;SDS011;34453;52.198;5.004;2022-10-17T05:06:32;6.78;;;6.20;;
48667;SDS011;34453;52.198;5.004;2022-10-17T05:08:58;13.40;;;6.60;;
48667;SDS011;34453;52.198;5.004;2022-10-17T05:11:24;7.43;;;6.47;;
48667;SDS011;34453;52.198;5.004;2022-10-17T05:13:51;7.20;;;5.25;;
48667;SDS011;34453;52.198;5.004;2022-10-17T05:16:16;6.93;;;6.10;;
48667;SDS011;34453;52.198;5.004;2022-10-17T05:18:41;6.20;;;5.65;;
48667;SDS011;34453;52.198;5.004;2022-10-17T05:21:07;13.68;;;5.57;;
48667;SDS011;34453;52.198;5.004;2022-10-17T05:23:32;6.82;;;6.22;;
48667;SDS011;34453;52.198;5.004;2022-10-17T05:25:57;7.78;;;6.80;;
48667;SDS011;34453;52.198;5.004;2022-10-17T05:28:23;6.47;;;6.00;;
48667;SDS011;34453;52.198;5.004;2022-10-17T05:30:48;8.98;;;6.03;;
48667;SDS011;34453;52.198;5.004;2022-10-17T05:33:14;8.68;;;5.85;;
48667;SDS011;34453;52.198;5.004;2022-10-17T05:35:39;6.28;;;5.82;;
48667;SDS011;34453;52.198;5.004;2022-10-17T05:38:04;10.93;;;6.78;;
48667;SDS011;34453;52.198;5.004;2022-10-17T05:40:29;6.28;;;5.88;;
48667;SDS011;34453;52.198;5.004;2022-10-17T05:42:55;11.63;;;5.70;;
48667;SDS011;34453;52.198;5.004;2022-10-17T05:45:20;6.97;;;6.38;;
48667;SDS011;34453;52.198;5.004;2022-10-17T05:47:45;6.82;;;6.07;;
48667;SDS011;34453;52.198;5.004;2022-10-17T05:50:11;6.75;;;6.15;;
48667;SDS011;34453;52.198;5.004;2022-10-17T05:52:36;6.10;;;5.55;;
48667;SDS011;34453;52.198;5.004;2022-10-17T05:55:02;5.82;;;5.43;;
48667;SDS011;34453;52.198;5.004;2022-10-17T05:57:27;8.32;;;5.25;;
48667;SDS011;34453;52.198;5.004;2022-10-17T05:59:53;9.30;;;5.88;;
48667;SDS011;34453;52.198;5.004;2022-10-17T06:02:18;6.28;;;5.82;;
48667;SDS011;34453;52.198;5.004;2022-10-17T06:04:43;6.50;;;5.65;;
48667;SDS011;34453;52.198;5.004;2022-10-17T06:07:10;6.35;;;5.82;;
48667;SDS011;34453;52.198;5.004;2022-10-17T06:09:36;13.40;;;5.97;;
48667;SDS011;34453;52.198;5.004;2022-10-17T06:12:01;7.00;;;5.82;;
48667;SDS011;34453;52.198;5.004;2022-10-17T06:14:27;6.72;;;5.82;;
48667;SDS011;34453;52.198;5.004;2022-10-17T06:16:52;12.45;;;6.47;;
48667;SDS011;34453;52.198;5.004;2022-10-17T06:19:17;7.00;;;6.30;;
48667;SDS011;34453;52.198;5.004;2022-10-17T06:21:43;6.45;;;5.88;;
48667;SDS011;34453;52.198;5.004;2022-10-17T06:24:08;9.18;;;6.28;;
48667;SDS011;34453;52.198;5.004;2022-10-17T06:26:33;6.38;;;5.57;;
48667;SDS011;34453;52.198;5.004;2022-10-17T06:28:58;12.82;;;5.88;;
48667;SDS011;34453;52.198;5.004;2022-10-17T06:31:24;7.82;;;6.13;;
48667;SDS011;34453;52.198;5.004;2022-10-17T06:33:49;7.80;;;6.20;;
48667;SDS011;34453;52.198;5.004;2022-10-17T06:36:15;11.50;;;7.03;;
48667;SDS011;34453;52.198;5.004;2022-10-17T06:38:41;10.15;;;6.57;;
48667;SDS011;34453;52.198;5.004;2022-10-17T06:41:10;7.15;;;6.45;;
48667;SDS011;34453;52.198;5.004;2022-10-17T06:43:37;11.50;;;6.43;;
48667;SDS011;34453;52.198;5.004;2022-10-17T06:46:03;11.05;;;6.28;;
48667;SDS011;34453;52.198;5.004;2022-10-17T06:48:29;12.25;;;7.47;;
48667;SDS011;34453;52.198;5.004;2022-10-17T06:51:00;8.65;;;6.07;;
48667;SDS011;34453;52.198;5.004;2022-10-17T06:53:27;8.73;;;6.72;;
48667;SDS011;34453;52.198;5.004;2022-10-17T06:55:52;7.53;;;6.53;;
48667;SDS011;34453;52.198;5.004;2022-10-17T06:58:19;7.18;;;5.95;;
48667;SDS011;34453;52.198;5.004;2022-10-17T07:00:44;7.03;;;6.53;;
48667;SDS011;34453;52.198;5.004;2022-10-17T07:03:09;12.50;;;6.68;;
48667;SDS011;34453;52.198;5.004;2022-10-17T07:05:35;7.70;;;6.90;;
48667;SDS011;34453;52.198;5.004;2022-10-17T07:08:00;10.40;;;7.22;;
48667;SDS011;34453;52.198;5.004;2022-10-17T07:10:25;10.15;;;7.43;;
48667;SDS011;34453;52.198;5.004;2022-10-17T07:12:51;12.32;;;6.57;;
48667;SDS011;34453;52.198;5.004;2022-10-17T07:15:16;7.80;;;7.10;;
48667;SDS011;34453;52.198;5.004;2022-10-17T07:17:42;8.02;;;7.30;;
48667;SDS011;34453;52.198;5.004;2022-10-17T07:20:07;5.97;;;5.57;;
48667;SDS011;34453;52.198;5.004;2022-10-17T07:22:33;8.02;;;6.22;;
48667;SDS011;34453;52.198;5.004;2022-10-17T07:24:58;12.98;;;6.85;;
48667;SDS011;34453;52.198;5.004;2022-10-17T07:27:23;6.75;;;6.13;;
48667;SDS011;34453;52.198;5.004;2022-10-17T07:29:48;10.30;;;6.63;;
48667;SDS011;34453;52.198;5.004;2022-10-17T07:32:14;8.13;;;6.82;;
48667;SDS011;34453;52.198;5.004;2022-10-17T07:34:39;6.63;;;5.60;;
48667;SDS011;34453;52.198;5.004;2022-10-17T07:37:04;9.20;;;7.22;;
48667;SDS011;34453;52.198;5.004;2022-10-17T07:39:31;7.07;;;6.47;;
48667;SDS011;34453;52.198;5.004;2022-10-17T07:41:56;7.60;;;6.45;;
48667;SDS011;34453;52.198;5.004;2022-10-17T07:44:22;7.85;;;7.15;;
48667;SDS011;34453;52.198;5.004;2022-10-17T07:46:48;9.50;;;6.05;;
48667;SDS011;34453;52.198;5.004;2022-10-17T07:49:13;9.00;;;6.82;;
48667;SDS011;34453;52.198;5.004;2022-10-17T07:51:38;10.27;;;6.90;;
48667;SDS011;34453;52.198;5.004;2022-10-17T07:54:04;8.73;;;6.85;;
48667;SDS011;34453;52.198;5.004;2022-10-17T07:56:30;12.40;;;6.65;;
48667;SDS011;34453;52.198;5.004;2022-10-17T07:58:55;10.80;;;7.30;;
48667;SDS011;34453;52.198;5.004;2022-10-17T08:01:21;7.45;;;6.78;;
48667;SDS011;34453;52.198;5.004;2022-10-17T08:03:46;7.82;;;7.03;;
48667;SDS011;34453;52.198;5.004;2022-10-17T08:06:15;9.23;;;7.15;;
48667;SDS011;34453;52.198;5.004;2022-10-17T08:08:40;12.48;;;8.30;;
48667;SDS011;34453;52.198;5.004;2022-10-17T08:11:07;9.90;;;7.72;;
48667;SDS011;34453;52.198;5.004;2022-10-17T08:13:33;10.98;;;6.80;;
48667;SDS011;34453;52.198;5.004;2022-10-17T08:16:02;9.07;;;7.95;;
48667;SDS011;34453;52.198;5.004;2022-10-17T08:18:28;23.02;;;8.98;;
48667;SDS011;34453;52.198;5.004;2022-10-17T08:20:57;9.23;;;8.23;;
48667;SDS011;34453;52.198;5.004;2022-10-17T08:23:23;8.60;;;7.63;;
48667;SDS011;34453;52.198;5.004;2022-10-17T08:25:48;12.65;;;7.95;;
48667;SDS011;34453;52.198;5.004;2022-10-17T08:28:13;9.30;;;8.10;;
48667;SDS011;34453;52.198;5.004;2022-10-17T08:30:38;11.95;;;7.45;;
48667;SDS011;34453;52.198;5.004;2022-10-17T08:33:04;8.35;;;7.60;;
48667;SDS011;34453;52.198;5.004;2022-10-17T08:35:29;16.02;;;7.93;;
48667;SDS011;34453;52.198;5.004;2022-10-17T08:37:55;12.98;;;8.30;;
48667;SDS011;34453;52.198;5.004;2022-10-17T08:40:25;11.13;;;8.40;;
48667;SDS011;34453;52.198;5.004;2022-10-17T08:47:45;10.63;;;9.27;;
48667;SDS011;34453;52.198;5.004;2022-10-17T08:50:13;10.57;;;7.55;;
48667;SDS011;34453;52.198;5.004;2022-10-17T08:53:24;8.50;;;7.72;;
48667;SDS011;34453;52.198;5.004;2022-10-17T08:57:55;12.68;;;8.15;;
48667;SDS011;34453;52.198;5.004;2022-10-17T09:00:20;15.32;;;8.65;;
48667;SDS011;34453;52.198;5.004;2022-10-17T09:05:29;15.90;;;8.25;;
48667;SDS011;34453;52.198;5.004;2022-10-17T09:08:01;13.07;;;7.50;;
48667;SDS011;34453;52.198;5.004;2022-10-17T09:13:10;10.30;;;7.38;;
48667;SDS011;34453;52.198;5.004;2022-10-17T09:18:23;7.97;;;7.32;;
48667;SDS011;34453;52.198;5.004;2022-10-17T09:23:16;10.47;;;8.00;;
48667;SDS011;34453;52.198;5.004;2022-10-17T09:25:43;11.50;;;7.65;;
48667;SDS011;34453;52.198;5.004;2022-10-17T09:28:11;9.18;;;8.30;;
48667;SDS011;34453;52.198;5.004;2022-10-17T09:30:58;12.32;;;8.32;;
48667;SDS011;34453;52.198;5.004;2022-10-17T09:33:25;11.18;;;8.23;;
48667;SDS011;34453;52.198;5.004;2022-10-17T09:35:52;8.30;;;7.60;;
48667;SDS011;34453;52.198;5.004;2022-10-17T09:38:19;13.18;;;8.07;;
48667;SDS011;34453;52.198;5.004;2022-10-17T09:40:47;11.65;;;7.60;;
48667;SDS011;34453;52.198;5.004;2022-10-17T09:43:14;10.20;;;8.23;;
48667;SDS011;34453;52.198;5.004;2022-10-17T09:45:42;12.52;;;8.95;;
48667;SDS011;34453;52.198;5.004;2022-10-17T09:48:34;8.52;;;7.50;;
48667;SDS011;34453;52.198;5.004;2022-10-17T09:50:56;9.20;;;7.95;;
48667;SDS011;34453;52.198;5.004;2022-10-17T09:53:41;7.55;;;6.90;;
48667;SDS011;34453;52.198;5.004;2022-10-17T09:56:08;13.25;;;8.15;;
48667;SDS011;34453;52.198;5.004;2022-10-17T10:01:16;13.38;;;7.38;;
48667;SDS011;34453;52.198;5.004;2022-10-17T10:03:42;10.82;;;8.02;;
48667;SDS011;34453;52.198;5.004;2022-10-17T10:08:36;16.73;;;8.25;;
48667;SDS011;34453;52.198;5.004;2022-10-17T10:11:11;11.15;;;7.80;;
48667;SDS011;34453;52.198;5.004;2022-10-17T10:13:36;8.68;;;7.85;;
48667;SDS011;34453;52.198;5.004;2022-10-17T10:16:18;12.35;;;8.95;;
48667;SDS011;34453;52.198;5.004;2022-10-17T10:18:44;9.40;;;8.48;;
48667;SDS011;34453;52.198;5.004;2022-10-17T10:21:20;8.98;;;8.07;;
48667;SDS011;34453;52.198;5.004;2022-10-17T10:24:02;13.30;;;9.18;;
48667;SDS011;34453;52.198;5.004;2022-10-17T10:26:36;9.60;;;8.63;;
48667;SDS011;34453;52.198;5.004;2022-10-17T10:29:04;9.90;;;8.13;;
48667;SDS011;34453;52.198;5.004;2022-10-17T10:31:34;9.70;;;7.82;;
48667;SDS011;34453;52.198;5.004;2022-10-17T10:34:02;11.50;;;8.48;;
48667;SDS011;34453;52.198;5.004;2022-10-17T10:36:42;11.75;;;8.07;;
48667;SDS011;34453;52.198;5.004;2022-10-17T10:39:08;12.90;;;7.60;;
48667;SDS011;34453;52.198;5.004;2022-10-17T10:41:48;9.85;;;6.78;;
48667;SDS011;34453;52.198;5.004;2022-10-17T10:44:14;6.78;;;6.28;;
48667;SDS011;34453;52.198;5.004;2022-10-17T10:46:41;6.10;;;5.57;;
48667;SDS011;34453;52.198;5.004;2022-10-17T10:49:06;8.02;;;5.05;;
48667;SDS011;34453;52.198;5.004;2022-10-17T10:51:51;5.43;;;4.90;;
48667;SDS011;34453;52.198;5.004;2022-10-17T10:54:19;7.32;;;5.00;;
48667;SDS011;34453;52.198;5.004;2022-10-17T10:56:48;10.32;;;7.20;;
48667;SDS011;34453;52.198;5.004;2022-10-17T10:59:28;8.63;;;6.55;;
48667;SDS011;34453;52.198;5.004;2022-10-17T11:04:32;8.63;;;6.60;;
48667;SDS011;34453;52.198;5.004;2022-10-17T11:07:02;6.57;;;5.95;;
48667;SDS011;34453;52.198;5.004;2022-10-17T11:12:09;6.68;;;5.70;;
48667;SDS011;34453;52.198;5.004;2022-10-17T11:14:46;5.55;;;5.15;;
48667;SDS011;34453;52.198;5.004;2022-10-17T11:17:27;4.45;;;3.88;;
48667;SDS011;34453;52.198;5.004;2022-10-17T11:22:33;14.15;;;5.47;;
48667;SDS011;34453;52.198;5.004;2022-10-17T11:27:35;5.20;;;4.80;;
48667;SDS011;34453;52.198;5.004;2022-10-17T11:30:01;5.55;;;5.15;;
48667;SDS011;34453;52.198;5.004;2022-10-17T11:32:30;5.32;;;4.85;;
48667;SDS011;34453;52.198;5.004;2022-10-17T11:35:00;5.40;;;4.90;;
48667;SDS011;34453;52.198;5.004;2022-10-17T11:37:27;8.05;;;4.95;;
48667;SDS011;34453;52.198;5.004;2022-10-17T11:45:17;7.65;;;5.00;;
48667;SDS011;34453;52.198;5.004;2022-10-17T11:55:01;5.82;;;5.07;;
48667;SDS011;34453;52.198;5.004;2022-10-17T12:05:46;11.32;;;5.75;;
48667;SDS011;34453;52.198;5.004;2022-10-17T12:08:18;5.85;;;5.15;;
48667;SDS011;34453;52.198;5.004;2022-10-17T12:10:47;5.70;;;4.70;;
48667;SDS011;34453;52.198;5.004;2022-10-17T12:13:49;7.00;;;4.78;;
48667;SDS011;34453;52.198;5.004;2022-10-17T12:18:44;5.38;;;4.90;;
48667;SDS011;34453;52.198;5.004;2022-10-17T12:21:09;4.82;;;4.53;;
48667;SDS011;34453;52.198;5.004;2022-10-17T12:23:35;7.43;;;4.88;;
48667;SDS011;34453;52.198;5.004;2022-10-17T12:26:07;5.65;;;4.10;;
48667;SDS011;34453;52.198;5.004;2022-10-17T12:30:59;6.95;;;4.65;;
48667;SDS011;34453;52.198;5.004;2022-10-17T12:38:37;5.15;;;4.78;;
48667;SDS011;34453;52.198;5.004;2022-10-17T12:41:03;5.63;;;4.68;;
48667;SDS011;34453;52.198;5.004;2022-10-17T12:45:54;4.97;;;4.57;;
48667;SDS011;34453;52.198;5.004;2022-10-17T12:51:12;4.50;;;4.10;;
48667;SDS011;34453;52.198;5.004;2022-10-17T12:56:03;4.43;;;4.13;;
48667;SDS011;34453;52.198;5.004;2022-10-17T12:58:29;5.10;;;4.35;;
48667;SDS011;34453;52.198;5.004;2022-10-17T13:00:55;7.70;;;4.50;;
48667;SDS011;34453;52.198;5.004;2022-10-17T13:03:23;4.22;;;4.00;;
48667;SDS011;34453;52.198;5.004;2022-10-17T13:05:56;4.78;;;4.35;;
48667;SDS011;34453;52.198;5.004;2022-10-17T13:10:51;4.65;;;4.25;;
48667;SDS011;34453;52.198;5.004;2022-10-17T13:13:35;5.75;;;5.25;;
48667;SDS011;34453;52.198;5.004;2022-10-17T13:16:02;7.70;;;4.63;;
48667;SDS011;34453;52.198;5.004;2022-10-17T13:18:28;5.13;;;4.47;;
48667;SDS011;34453;52.198;5.004;2022-10-17T13:21:00;6.05;;;4.47;;
48667;SDS011;34453;52.198;5.004;2022-10-17T13:23:36;4.55;;;4.35;;
48667;SDS011;34453;52.198;5.004;2022-10-17T13:26:03;4.65;;;4.38;;
48667;SDS011;34453;52.198;5.004;2022-10-17T13:28:29;4.32;;;3.95;;
48667;SDS011;34453;52.198;5.004;2022-10-17T13:30:54;3.97;;;3.78;;
48667;SDS011;34453;52.198;5.004;2022-10-17T13:33:27;4.53;;;4.25;;
48667;SDS011;34453;52.198;5.004;2022-10-17T13:35:53;3.80;;;3.50;;
48667;SDS011;34453;52.198;5.004;2022-10-17T13:38:19;4.72;;;4.38;;
48667;SDS011;34453;52.198;5.004;2022-10-17T13:40:48;5.20;;;4.65;;
48667;SDS011;34453;52.198;5.004;2022-10-17T13:43:15;4.10;;;3.90;;
48667;SDS011;34453;52.198;5.004;2022-10-17T13:45:44;4.95;;;4.35;;
48667;SDS011;34453;52.198;5.004;2022-10-17T13:48:17;6.22;;;4.00;;
48667;SDS011;34453;52.198;5.004;2022-10-17T13:50:42;4.55;;;4.25;;
48667;SDS011;34453;52.198;5.004;2022-10-17T13:58:20;7.15;;;4.93;;
48667;SDS011;34453;52.198;5.004;2022-10-17T14:00:46;7.97;;;4.07;;
48667;SDS011;34453;52.198;5.004;2022-10-17T14:03:13;8.57;;;4.82;;
48667;SDS011;34453;52.198;5.004;2022-10-17T14:05:57;4.72;;;4.18;;
48667;SDS011;34453;52.198;5.004;2022-10-17T14:08:23;7.47;;;5.00;;
48667;SDS011;34453;52.198;5.004;2022-10-17T14:10:48;6.28;;;5.38;;
48667;SDS011;34453;52.198;5.004;2022-10-17T14:13:35;5.65;;;5.15;;
48667;SDS011;34453;52.198;5.004;2022-10-17T14:16:00;13.27;;;4.97;;
48667;SDS011;34453;52.198;5.004;2022-10-17T14:18:28;4.85;;;4.45;;
48667;SDS011;34453;52.198;5.004;2022-10-17T14:20:53;6.45;;;5.53;;
48667;SDS011;34453;52.198;5.004;2022-10-17T14:24:06;4.63;;;4.32;;
48667;SDS011;34453;52.198;5.004;2022-10-17T14:26:11;5.20;;;4.70;;
48667;SDS011;34453;52.198;5.004;2022-10-17T14:28:37;8.75;;;4.55;;
48667;SDS011;34453;52.198;5.004;2022-10-17T14:33:36;7.40;;;4.40;;
48667;SDS011;34453;52.198;5.004;2022-10-17T14:36:02;7.30;;;4.20;;
48667;SDS011;34453;52.198;5.004;2022-10-17T14:38:29;5.15;;;4.50;;
48667;SDS011;34453;52.198;5.004;2022-10-17T14:43:21;5.15;;;3.42;;
48667;SDS011;34453;52.198;5.004;2022-10-17T14:45:47;5.97;;;3.38;;
48667;SDS011;34453;52.198;5.004;2022-10-17T14:48:14;3.95;;;3.50;;
48667;SDS011;34453;52.198;5.004;2022-10-17T14:50:40;3.33;;;3.03;;
48667;SDS011;34453;52.198;5.004;2022-10-17T14:55:36;11.48;;;3.25;;
48667;SDS011;34453;52.198;5.004;2022-10-17T14:58:14;2.97;;;2.78;;
48667;SDS011;34453;52.198;5.004;2022-10-17T15:00:40;7.97;;;3.22;;
48667;SDS011;34453;52.198;5.004;2022-10-17T15:03:05;3.42;;;2.92;;
48667;SDS011;34453;52.198;5.004;2022-10-17T15:05:30;5.57;;;2.80;;
48667;SDS011;34453;52.198;5.004;2022-10-17T15:07:56;3.97;;;3.35;;
48667;SDS011;34453;52.198;5.004;2022-10-17T15:10:27;5.18;;;3.22;;
48667;SDS011;34453;52.198;5.004;2022-10-17T15:12:52;5.55;;;3.58;;
48667;SDS011;34453;52.198;5.004;2022-10-17T15:15:18;4.50;;;3.78;;
48667;SDS011;34453;52.198;5.004;2022-10-17T15:17:43;3.72;;;3.42;;
48667;SDS011;34453;52.198;5.004;2022-10-17T15:20:12;7.40;;;4.68;;
48667;SDS011;34453;52.198;5.004;2022-10-17T15:22:38;3.95;;;3.70;;
48667;SDS011;34453;52.198;5.004;2022-10-17T15:25:03;4.03;;;3.72;;
48667;SDS011;34453;52.198;5.004;2022-10-17T15:27:29;5.43;;;4.05;;
48667;SDS011;34453;52.198;5.004;2022-10-17T15:29:56;4.28;;;3.90;;
48667;SDS011;34453;52.198;5.004;2022-10-17T15:32:21;6.25;;;4.05;;
48667;SDS011;34453;52.198;5.004;2022-10-17T15:34:46;3.92;;;3.63;;
48667;SDS011;34453;52.198;5.004;2022-10-17T15:37:13;5.38;;;4.00;;
48667;SDS011;34453;52.198;5.004;2022-10-17T15:39:40;7.55;;;3.70;;
48667;SDS011;34453;52.198;5.004;2022-10-17T15:42:09;4.88;;;3.30;;
48667;SDS011;34453;52.198;5.004;2022-10-17T15:44:36;4.03;;;3.65;;
48667;SDS011;34453;52.198;5.004;2022-10-17T15:47:01;4.70;;;3.60;;
48667;SDS011;34453;52.198;5.004;2022-10-17T15:49:27;5.80;;;3.33;;
48667;SDS011;34453;52.198;5.004;2022-10-17T15:51:52;8.75;;;3.38;;
48667;SDS011;34453;52.198;5.004;2022-10-17T15:54:17;8.65;;;4.00;;
48667;SDS011;34453;52.198;5.004;2022-10-17T15:56:43;5.25;;;3.10;;
48667;SDS011;34453;52.198;5.004;2022-10-17T15:59:15;3.45;;;2.75;;
48667;SDS011;34453;52.198;5.004;2022-10-17T16:01:42;9.50;;;2.97;;
48667;SDS011;34453;52.198;5.004;2022-10-17T16:04:11;6.30;;;2.30;;
48667;SDS011;34453;52.198;5.004;2022-10-17T16:06:38;9.35;;;2.80;;
48667;SDS011;34453;52.198;5.004;2022-10-17T16:09:04;3.22;;;2.40;;
48667;SDS011;34453;52.198;5.004;2022-10-17T16:13:55;3.85;;;2.72;;
48667;SDS011;34453;52.198;5.004;2022-10-17T16:16:21;3.50;;;2.42;;
48667;SDS011;34453;52.198;5.004;2022-10-17T16:18:47;3.78;;;2.65;;
48667;SDS011;34453;52.198;5.004;2022-10-17T16:21:12;5.32;;;2.50;;
48667;SDS011;34453;52.198;5.004;2022-10-17T16:23:38;7.72;;;3.03;;
48667;SDS011;34453;52.198;5.004;2022-10-17T16:26:04;4.72;;;3.28;;
48667;SDS011;34453;52.198;5.004;2022-10-17T16:28:29;7.30;;;2.72;;
48667;SDS011;34453;52.198;5.004;2022-10-17T16:30:54;3.15;;;2.65;;
48667;SDS011;34453;52.198;5.004;2022-10-17T16:33:20;6.05;;;3.05;;
48667;SDS011;34453;52.198;5.004;2022-10-17T16:35:45;4.13;;;2.45;;
48667;SDS011;34453;52.198;5.004;2022-10-17T16:38:13;11.38;;;3.47;;
48667;SDS011;34453;52.198;5.004;2022-10-17T16:40:38;6.03;;;3.65;;
48667;SDS011;34453;52.198;5.004;2022-10-17T16:43:04;7.22;;;4.25;;
48667;SDS011;34453;52.198;5.004;2022-10-17T16:45:29;6.88;;;3.63;;
48667;SDS011;34453;52.198;5.004;2022-10-17T16:47:55;4.60;;;3.42;;
48667;SDS011;34453;52.198;5.004;2022-10-17T16:50:20;7.68;;;3.10;;